sensor_id;sensor_type;location;lat;lon;timestamp;temperature;humidity
16970;DHT22;8601;48.718;8.992;2023-07-30T00:01:01;17.90;99.90
16970;DHT22;8601;48.718;8.992;2023-07-30T00:03:28;17.70;99.90
16970;DHT22;8601;48.718;8.992;2023-07-30T00:05:55;17.70;99.90
16970;DHT22;8601;48.718;8.992;2023-07-30T00:08:23;17.70;99.90
16970;DHT22;8601;48.718;8.992;2023-07-30T00:10:50;17.70;99.90
16970;DHT22;8601;48.718;8.992;2023-07-30T00:13:17;17.70;99.90
16970;DHT22;8601;48.718;8.992;2023-07-30T00:15:45;17.80;99.90
16970;DHT22;8601;48.718;8.992;2023-07-30T00:18:13;17.80;99.90
16970;DHT22;8601;48.718;8.992;2023-07-30T00:20:40;17.80;99.90
16970;DHT22;8601;48.718;8.992;2023-07-30T00:23:07;17.90;99.90
16970;DHT22;8601;48.718;8.992;2023-07-30T00:25:35;17.90;99.90
16970;DHT22;8601;48.718;8.992;2023-07-30T00:28:02;17.90;99.90
16970;DHT22;8601;48.718;8.992;2023-07-30T00:30:29;17.90;99.90
16970;DHT22;8601;48.718;8.992;2023-07-30T00:32:56;17.80;99.90
16970;DHT22;8601;48.718;8.992;2023-07-30T00:35:23;17.80;99.90
16970;DHT22;8601;48.718;8.992;2023-07-30T00:37:50;17.80;99.90
16970;DHT22;8601;48.718;8.992;2023-07-30T00:40:17;17.80;99.90
16970;DHT22;8601;48.718;8.992;2023-07-30T00:42:46;17.80;99.90
16970;DHT22;8601;48.718;8.992;2023-07-30T00:45:13;17.80;99.90
16970;DHT22;8601;48.718;8.992;2023-07-30T00:47:40;17.70;99.90
16970;DHT22;8601;48.718;8.992;2023-07-30T00:50:08;17.70;99.90
16970;DHT22;8601;48.718;8.992;2023-07-30T00:52:36;17.60;99.90
16970;DHT22;8601;48.718;8.992;2023-07-30T00:55:04;17.60;99.90
16970;DHT22;8601;48.718;8.992;2023-07-30T00:57:32;17.70;99.90
16970;DHT22;8601;48.718;8.992;2023-07-30T01:00:01;17.70;99.90
16970;DHT22;8601;48.718;8.992;2023-07-30T01:02:31;17.70;99.90
16970;DHT22;8601;48.718;8.992;2023-07-30T01:04:59;17.80;99.90
16970;DHT22;8601;48.718;8.992;2023-07-30T01:07:28;17.80;99.90
16970;DHT22;8601;48.718;8.992;2023-07-30T01:09:56;17.80;99.90
16970;DHT22;8601;48.718;8.992;2023-07-30T01:12:23;17.80;99.90
16970;DHT22;8601;48.718;8.992;2023-07-30T01:14:50;17.80;99.90
16970;DHT22;8601;48.718;8.992;2023-07-30T01:17:20;17.80;99.90
16970;DHT22;8601;48.718;8.992;2023-07-30T01:19:48;17.80;99.90
16970;DHT22;8601;48.718;8.992;2023-07-30T01:22:16;17.90;99.90
16970;DHT22;8601;48.718;8.992;2023-07-30T01:24:43;17.90;99.90
16970;DHT22;8601;48.718;8.992;2023-07-30T01:27:14;17.90;99.90
16970;DHT22;8601;48.718;8.992;2023-07-30T01:29:48;17.80;99.90
16970;DHT22;8601;48.718;8.992;2023-07-30T01:32:17;17.90;99.90
16970;DHT22;8601;48.718;8.992;2023-07-30T01:34:46;17.80;99.90
16970;DHT22;8601;48.718;8.992;2023-07-30T01:37:16;17.70;99.90
16970;DHT22;8601;48.718;8.992;2023-07-30T01:39:44;17.70;99.90
16970;DHT22;8601;48.718;8.992;2023-07-30T01:42:12;17.70;99.90
16970;DHT22;8601;48.718;8.992;2023-07-30T01:44:39;17.70;99.90
16970;DHT22;8601;48.718;8.992;2023-07-30T01:47:06;17.70;99.90
16970;DHT22;8601;48.718;8.992;2023-07-30T01:49:33;17.70;99.90
16970;DHT22;8601;48.718;8.992;2023-07-30T01:52:00;17.70;99.90
16970;DHT22;8601;48.718;8.992;2023-07-30T01:54:28;17.60;99.90
16970;DHT22;8601;48.718;8.992;2023-07-30T01:56:55;17.60;99.90
16970;DHT22;8601;48.718;8.992;2023-07-30T01:59:22;17.60;99.90
16970;DHT22;8601;48.718;8.992;2023-07-30T02:01:49;17.50;99.90
16970;DHT22;8601;48.718;8.992;2023-07-30T02:04:16;17.60;99.90
16970;DHT22;8601;48.718;8.992;2023-07-30T02:06:43;17.60;99.90
16970;DHT22;8601;48.718;8.992;2023-07-30T02:09:11;17.60;99.90
16970;DHT22;8601;48.718;8.992;2023-07-30T02:11:40;17.50;99.90
16970;DHT22;8601;48.718;8.992;2023-07-30T02:14:08;17.60;99.90
16970;DHT22;8601;48.718;8.992;2023-07-30T02:16:35;17.50;99.90
16970;DHT22;8601;48.718;8.992;2023-07-30T02:19:02;17.50;99.90
16970;DHT22;8601;48.718;8.992;2023-07-30T02:21:29;17.40;99.90
16970;DHT22;8601;48.718;8.992;2023-07-30T02:23:58;17.50;99.90
16970;DHT22;8601;48.718;8.992;2023-07-30T02:26:25;17.40;99.90
16970;DHT22;8601;48.718;8.992;2023-07-30T02:28:54;17.40;99.90
16970;DHT22;8601;48.718;8.992;2023-07-30T02:31:20;17.30;99.90
16970;DHT22;8601;48.718;8.992;2023-07-30T02:33:47;17.30;99.90
16970;DHT22;8601;48.718;8.992;2023-07-30T02:36:14;17.30;99.90
16970;DHT22;8601;48.718;8.992;2023-07-30T02:38:41;17.30;99.90
16970;DHT22;8601;48.718;8.992;2023-07-30T02:41:08;17.30;99.90
16970;DHT22;8601;48.718;8.992;2023-07-30T02:43:34;17.30;99.90
16970;DHT22;8601;48.718;8.992;2023-07-30T02:46:03;17.30;99.90
16970;DHT22;8601;48.718;8.992;2023-07-30T02:48:30;17.30;99.90
16970;DHT22;8601;48.718;8.992;2023-07-30T02:50:56;17.20;99.90
16970;DHT22;8601;48.718;8.992;2023-07-30T02:53:23;17.10;99.90
16970;DHT22;8601;48.718;8.992;2023-07-30T02:55:50;17.10;99.90
16970;DHT22;8601;48.718;8.992;2023-07-30T02:58:17;17.10;99.90
16970;DHT22;8601;48.718;8.992;2023-07-30T03:00:44;17.00;99.90
16970;DHT22;8601;48.718;8.992;2023-07-30T03:03:12;17.00;99.90
16970;DHT22;8601;48.718;8.992;2023-07-30T03:05:41;17.00;99.90
16970;DHT22;8601;48.718;8.992;2023-07-30T03:08:09;17.00;99.90
16970;DHT22;8601;48.718;8.992;2023-07-30T03:10:36;17.00;99.90
16970;DHT22;8601;48.718;8.992;2023-07-30T03:13:03;17.00;99.90
16970;DHT22;8601;48.718;8.992;2023-07-30T03:15:30;16.90;99.90
16970;DHT22;8601;48.718;8.992;2023-07-30T03:17:56;16.90;99.90
16970;DHT22;8601;48.718;8.992;2023-07-30T03:20:25;16.90;99.90
16970;DHT22;8601;48.718;8.992;2023-07-30T03:22:52;16.90;99.90
16970;DHT22;8601;48.718;8.992;2023-07-30T03:25:19;17.00;99.90
16970;DHT22;8601;48.718;8.992;2023-07-30T03:27:45;17.00;99.90
16970;DHT22;8601;48.718;8.992;2023-07-30T03:30:12;17.00;99.90
16970;DHT22;8601;48.718;8.992;2023-07-30T03:32:39;17.00;99.90
16970;DHT22;8601;48.718;8.992;2023-07-30T03:35:07;17.00;99.90
16970;DHT22;8601;48.718;8.992;2023-07-30T03:37:36;17.00;99.90
16970;DHT22;8601;48.718;8.992;2023-07-30T03:40:03;17.00;99.90
16970;DHT22;8601;48.718;8.992;2023-07-30T03:42:30;17.10;99.90
16970;DHT22;8601;48.718;8.992;2023-07-30T03:44:58;17.10;99.90
16970;DHT22;8601;48.718;8.992;2023-07-30T03:47:24;17.10;99.90
16970;DHT22;8601;48.718;8.992;2023-07-30T03:49:51;17.10;99.90
16970;DHT22;8601;48.718;8.992;2023-07-30T03:52:18;17.10;99.90
16970;DHT22;8601;48.718;8.992;2023-07-30T03:54:47;17.00;99.90
16970;DHT22;8601;48.718;8.992;2023-07-30T03:57:14;17.10;99.90
16970;DHT22;8601;48.718;8.992;2023-07-30T03:59:41;17.00;99.90
16970;DHT22;8601;48.718;8.992;2023-07-30T04:02:08;17.00;99.90
16970;DHT22;8601;48.718;8.992;2023-07-30T04:04:35;17.00;99.90
16970;DHT22;8601;48.718;8.992;2023-07-30T04:07:03;17.00;99.90
16970;DHT22;8601;48.718;8.992;2023-07-30T04:09:30;17.00;99.90
16970;DHT22;8601;48.718;8.992;2023-07-30T04:11:58;17.00;99.90
16970;DHT22;8601;48.718;8.992;2023-07-30T04:14:25;17.00;99.90
16970;DHT22;8601;48.718;8.992;2023-07-30T04:16:52;17.00;99.90
16970;DHT22;8601;48.718;8.992;2023-07-30T04:19:18;17.00;99.90
16970;DHT22;8601;48.718;8.992;2023-07-30T04:21:46;17.00;99.90
16970;DHT22;8601;48.718;8.992;2023-07-30T04:24:13;17.00;99.90
16970;DHT22;8601;48.718;8.992;2023-07-30T04:26:40;17.00;99.90
16970;DHT22;8601;48.718;8.992;2023-07-30T04:29:08;16.90;99.90
16970;DHT22;8601;48.718;8.992;2023-07-30T04:31:36;17.00;99.90
16970;DHT22;8601;48.718;8.992;2023-07-30T04:34:02;16.90;99.90
16970;DHT22;8601;48.718;8.992;2023-07-30T04:36:29;16.80;99.90
16970;DHT22;8601;48.718;8.992;2023-07-30T04:38:56;16.90;99.90
16970;DHT22;8601;48.718;8.992;2023-07-30T04:41:23;16.90;99.90
16970;DHT22;8601;48.718;8.992;2023-07-30T04:43:50;16.90;99.90
16970;DHT22;8601;48.718;8.992;2023-07-30T04:46:18;16.90;99.90
16970;DHT22;8601;48.718;8.992;2023-07-30T04:48:45;17.00;99.90
16970;DHT22;8601;48.718;8.992;2023-07-30T04:51:11;17.00;99.90
16970;DHT22;8601;48.718;8.992;2023-07-30T04:53:38;17.00;99.90
16970;DHT22;8601;48.718;8.992;2023-07-30T04:56:05;17.00;99.90
16970;DHT22;8601;48.718;8.992;2023-07-30T04:58:32;16.90;99.90
16970;DHT22;8601;48.718;8.992;2023-07-30T05:00:59;17.00;99.90
16970;DHT22;8601;48.718;8.992;2023-07-30T05:03:27;17.00;99.90
16970;DHT22;8601;48.718;8.992;2023-07-30T05:05:54;17.10;99.90
16970;DHT22;8601;48.718;8.992;2023-07-30T05:08:21;17.00;99.90
16970;DHT22;8601;48.718;8.992;2023-07-30T05:10:48;17.00;99.90
16970;DHT22;8601;48.718;8.992;2023-07-30T05:13:14;17.00;99.90
16970;DHT22;8601;48.718;8.992;2023-07-30T05:15:41;17.10;99.90
16970;DHT22;8601;48.718;8.992;2023-07-30T05:18:08;17.10;99.90
16970;DHT22;8601;48.718;8.992;2023-07-30T05:20:37;17.10;99.90
16970;DHT22;8601;48.718;8.992;2023-07-30T05:23:04;17.10;99.90
16970;DHT22;8601;48.718;8.992;2023-07-30T05:25:32;17.20;99.90
16970;DHT22;8601;48.718;8.992;2023-07-30T05:27:59;17.20;99.90
16970;DHT22;8601;48.718;8.992;2023-07-30T05:30:26;17.20;99.90
16970;DHT22;8601;48.718;8.992;2023-07-30T05:32:53;17.10;99.90
16970;DHT22;8601;48.718;8.992;2023-07-30T05:35:19;17.20;99.90
16970;DHT22;8601;48.718;8.992;2023-07-30T05:37:48;17.20;99.90
16970;DHT22;8601;48.718;8.992;2023-07-30T05:40:15;17.20;99.90
16970;DHT22;8601;48.718;8.992;2023-07-30T05:42:43;17.30;99.90
16970;DHT22;8601;48.718;8.992;2023-07-30T05:45:12;17.30;99.90
16970;DHT22;8601;48.718;8.992;2023-07-30T05:47:39;17.20;99.90
16970;DHT22;8601;48.718;8.992;2023-07-30T05:50:07;17.20;99.90
16970;DHT22;8601;48.718;8.992;2023-07-30T05:52:34;17.30;99.90
16970;DHT22;8601;48.718;8.992;2023-07-30T05:55:04;17.30;99.90
16970;DHT22;8601;48.718;8.992;2023-07-30T05:57:31;17.30;99.90
16970;DHT22;8601;48.718;8.992;2023-07-30T05:59:57;17.30;99.90
16970;DHT22;8601;48.718;8.992;2023-07-30T06:02:24;17.30;99.90
16970;DHT22;8601;48.718;8.992;2023-07-30T06:04:51;17.40;99.90
16970;DHT22;8601;48.718;8.992;2023-07-30T06:07:18;17.50;99.90
16970;DHT22;8601;48.718;8.992;2023-07-30T06:09:45;17.50;99.90
16970;DHT22;8601;48.718;8.992;2023-07-30T06:12:13;17.50;99.90
16970;DHT22;8601;48.718;8.992;2023-07-30T06:14:40;17.50;99.90
16970;DHT22;8601;48.718;8.992;2023-07-30T06:17:08;17.60;99.90
16970;DHT22;8601;48.718;8.992;2023-07-30T06:19:35;17.60;99.90
16970;DHT22;8601;48.718;8.992;2023-07-30T06:22:02;17.50;99.90
16970;DHT22;8601;48.718;8.992;2023-07-30T06:24:29;17.50;99.90
16970;DHT22;8601;48.718;8.992;2023-07-30T06:26:56;17.60;99.90
16970;DHT22;8601;48.718;8.992;2023-07-30T06:29:25;17.60;99.90
16970;DHT22;8601;48.718;8.992;2023-07-30T06:31:51;17.60;99.90
16970;DHT22;8601;48.718;8.992;2023-07-30T06:34:18;17.70;99.90
16970;DHT22;8601;48.718;8.992;2023-07-30T06:36:45;17.90;99.90
16970;DHT22;8601;48.718;8.992;2023-07-30T06:39:12;17.90;99.90
16970;DHT22;8601;48.718;8.992;2023-07-30T06:41:39;18.00;99.90
16970;DHT22;8601;48.718;8.992;2023-07-30T06:44:06;18.10;99.90
16970;DHT22;8601;48.718;8.992;2023-07-30T06:46:35;18.10;99.90
16970;DHT22;8601;48.718;8.992;2023-07-30T06:49:02;18.10;99.90
16970;DHT22;8601;48.718;8.992;2023-07-30T06:51:29;18.20;99.90
16970;DHT22;8601;48.718;8.992;2023-07-30T06:53:56;18.10;99.90
16970;DHT22;8601;48.718;8.992;2023-07-30T06:56:23;18.10;99.90
16970;DHT22;8601;48.718;8.992;2023-07-30T06:58:52;18.00;99.90
16970;DHT22;8601;48.718;8.992;2023-07-30T07:01:19;18.00;99.90
16970;DHT22;8601;48.718;8.992;2023-07-30T07:03:47;18.00;99.90
16970;DHT22;8601;48.718;8.992;2023-07-30T07:06:14;18.00;99.90
16970;DHT22;8601;48.718;8.992;2023-07-30T07:08:41;18.00;99.90
16970;DHT22;8601;48.718;8.992;2023-07-30T07:11:08;18.10;99.90
16970;DHT22;8601;48.718;8.992;2023-07-30T07:13:34;18.10;99.90
16970;DHT22;8601;48.718;8.992;2023-07-30T07:16:01;18.00;99.90
16970;DHT22;8601;48.718;8.992;2023-07-30T07:18:29;18.00;99.90
16970;DHT22;8601;48.718;8.992;2023-07-30T07:20:57;18.00;99.90
16970;DHT22;8601;48.718;8.992;2023-07-30T07:23:24;17.90;99.90
16970;DHT22;8601;48.718;8.992;2023-07-30T07:25:52;17.90;99.90
16970;DHT22;8601;48.718;8.992;2023-07-30T07:28:19;17.80;99.90
16970;DHT22;8601;48.718;8.992;2023-07-30T07:30:45;17.90;99.90
16970;DHT22;8601;48.718;8.992;2023-07-30T07:33:13;17.90;99.90
16970;DHT22;8601;48.718;8.992;2023-07-30T07:35:40;17.80;99.90
16970;DHT22;8601;48.718;8.992;2023-07-30T07:38:09;17.70;99.90
16970;DHT22;8601;48.718;8.992;2023-07-30T07:40:36;17.80;99.90
16970;DHT22;8601;48.718;8.992;2023-07-30T07:43:04;17.80;99.90
16970;DHT22;8601;48.718;8.992;2023-07-30T07:45:31;17.70;99.90
16970;DHT22;8601;48.718;8.992;2023-07-30T07:47:58;17.60;99.90
16970;DHT22;8601;48.718;8.992;2023-07-30T07:50:25;17.60;99.90
16970;DHT22;8601;48.718;8.992;2023-07-30T07:52:52;17.70;99.90
16970;DHT22;8601;48.718;8.992;2023-07-30T07:55:20;17.80;99.90
16970;DHT22;8601;48.718;8.992;2023-07-30T07:57:47;18.00;99.90
16970;DHT22;8601;48.718;8.992;2023-07-30T08:00:14;18.00;99.90
16970;DHT22;8601;48.718;8.992;2023-07-30T08:02:41;18.10;99.90
16970;DHT22;8601;48.718;8.992;2023-07-30T08:05:08;18.10;99.90
16970;DHT22;8601;48.718;8.992;2023-07-30T08:07:35;18.20;99.90
16970;DHT22;8601;48.718;8.992;2023-07-30T08:10:03;18.30;99.90
16970;DHT22;8601;48.718;8.992;2023-07-30T08:12:32;18.20;99.90
16970;DHT22;8601;48.718;8.992;2023-07-30T08:15:00;18.30;99.90
16970;DHT22;8601;48.718;8.992;2023-07-30T08:17:26;18.40;99.90
16970;DHT22;8601;48.718;8.992;2023-07-30T08:19:53;18.50;99.90
16970;DHT22;8601;48.718;8.992;2023-07-30T08:22:20;18.60;99.90
16970;DHT22;8601;48.718;8.992;2023-07-30T08:24:47;18.60;99.90
16970;DHT22;8601;48.718;8.992;2023-07-30T08:27:14;18.80;99.90
16970;DHT22;8601;48.718;8.992;2023-07-30T08:29:42;18.80;99.90
16970;DHT22;8601;48.718;8.992;2023-07-30T08:32:09;18.80;99.90
16970;DHT22;8601;48.718;8.992;2023-07-30T08:34:36;18.80;99.90
16970;DHT22;8601;48.718;8.992;2023-07-30T08:37:03;18.90;99.90
16970;DHT22;8601;48.718;8.992;2023-07-30T08:39:30;18.90;99.90
16970;DHT22;8601;48.718;8.992;2023-07-30T08:41:58;19.10;99.90
16970;DHT22;8601;48.718;8.992;2023-07-30T08:44:25;19.10;99.90
16970;DHT22;8601;48.718;8.992;2023-07-30T08:46:54;18.90;99.90
16970;DHT22;8601;48.718;8.992;2023-07-30T08:49:21;19.00;99.90
16970;DHT22;8601;48.718;8.992;2023-07-30T08:51:52;19.10;99.90
16970;DHT22;8601;48.718;8.992;2023-07-30T08:54:20;19.00;99.90
16970;DHT22;8601;48.718;8.992;2023-07-30T08:56:49;19.00;99.90
16970;DHT22;8601;48.718;8.992;2023-07-30T08:59:17;19.10;99.90
16970;DHT22;8601;48.718;8.992;2023-07-30T09:01:45;18.90;99.90
16970;DHT22;8601;48.718;8.992;2023-07-30T09:04:17;18.90;99.90
16970;DHT22;8601;48.718;8.992;2023-07-30T09:06:48;19.10;99.90
16970;DHT22;8601;48.718;8.992;2023-07-30T09:09:15;19.40;99.90
16970;DHT22;8601;48.718;8.992;2023-07-30T09:11:42;19.40;99.90
16970;DHT22;8601;48.718;8.992;2023-07-30T09:14:09;19.40;99.90
16970;DHT22;8601;48.718;8.992;2023-07-30T09:16:37;19.30;99.90
16970;DHT22;8601;48.718;8.992;2023-07-30T09:19:06;19.10;99.90
16970;DHT22;8601;48.718;8.992;2023-07-30T09:21:34;19.10;99.90
16970;DHT22;8601;48.718;8.992;2023-07-30T09:24:02;19.00;99.90
16970;DHT22;8601;48.718;8.992;2023-07-30T09:26:40;19.00;99.90
16970;DHT22;8601;48.718;8.992;2023-07-30T09:29:08;19.00;99.90
16970;DHT22;8601;48.718;8.992;2023-07-30T09:31:45;18.90;99.90
16970;DHT22;8601;48.718;8.992;2023-07-30T09:34:16;18.80;99.90
16970;DHT22;8601;48.718;8.992;2023-07-30T09:36:45;18.80;99.90
16970;DHT22;8601;48.718;8.992;2023-07-30T09:39:16;18.70;99.90
16970;DHT22;8601;48.718;8.992;2023-07-30T09:41:44;18.70;99.90
16970;DHT22;8601;48.718;8.992;2023-07-30T09:44:11;18.70;99.90
16970;DHT22;8601;48.718;8.992;2023-07-30T09:46:42;18.70;99.90
16970;DHT22;8601;48.718;8.992;2023-07-30T09:49:10;18.80;99.90
16970;DHT22;8601;48.718;8.992;2023-07-30T09:51:37;18.80;99.90
16970;DHT22;8601;48.718;8.992;2023-07-30T09:54:07;18.90;99.90
16970;DHT22;8601;48.718;8.992;2023-07-30T09:56:34;18.90;99.90
16970;DHT22;8601;48.718;8.992;2023-07-30T09:59:02;19.00;99.90
16970;DHT22;8601;48.718;8.992;2023-07-30T10:01:30;19.20;99.90
16970;DHT22;8601;48.718;8.992;2023-07-30T10:04:02;19.60;99.90
16970;DHT22;8601;48.718;8.992;2023-07-30T10:06:31;19.90;99.90
16970;DHT22;8601;48.718;8.992;2023-07-30T10:08:59;20.10;99.90
16970;DHT22;8601;48.718;8.992;2023-07-30T10:11:28;20.30;99.90
16970;DHT22;8601;48.718;8.992;2023-07-30T10:13:56;20.50;99.90
16970;DHT22;8601;48.718;8.992;2023-07-30T10:16:25;20.60;99.90
16970;DHT22;8601;48.718;8.992;2023-07-30T10:18:56;20.80;99.90
16970;DHT22;8601;48.718;8.992;2023-07-30T10:21:24;20.80;99.90
16970;DHT22;8601;48.718;8.992;2023-07-30T10:23:58;20.90;99.90
16970;DHT22;8601;48.718;8.992;2023-07-30T10:26:28;20.70;99.90
16970;DHT22;8601;48.718;8.992;2023-07-30T10:29:13;20.80;99.90
16970;DHT22;8601;48.718;8.992;2023-07-30T10:31:40;21.10;99.90
16970;DHT22;8601;48.718;8.992;2023-07-30T10:34:09;21.00;99.90
16970;DHT22;8601;48.718;8.992;2023-07-30T10:36:41;21.10;99.90
16970;DHT22;8601;48.718;8.992;2023-07-30T10:39:17;20.80;99.90
16970;DHT22;8601;48.718;8.992;2023-07-30T10:41:48;21.10;99.90
16970;DHT22;8601;48.718;8.992;2023-07-30T10:44:26;21.20;99.90
16970;DHT22;8601;48.718;8.992;2023-07-30T10:46:53;21.60;99.90
16970;DHT22;8601;48.718;8.992;2023-07-30T10:49:21;22.00;99.90
16970;DHT22;8601;48.718;8.992;2023-07-30T10:51:48;22.10;99.90
16970;DHT22;8601;48.718;8.992;2023-07-30T10:54:15;22.20;99.90
16970;DHT22;8601;48.718;8.992;2023-07-30T10:56:42;22.30;99.90
16970;DHT22;8601;48.718;8.992;2023-07-30T10:59:12;22.10;97.60
16970;DHT22;8601;48.718;8.992;2023-07-30T11:01:40;22.40;99.90
16970;DHT22;8601;48.718;8.992;2023-07-30T11:04:09;22.40;99.90
16970;DHT22;8601;48.718;8.992;2023-07-30T11:06:37;22.20;99.70
16970;DHT22;8601;48.718;8.992;2023-07-30T11:09:05;21.90;97.80
16970;DHT22;8601;48.718;8.992;2023-07-30T11:11:32;21.80;94.00
16970;DHT22;8601;48.718;8.992;2023-07-30T11:13:59;21.60;93.80
16970;DHT22;8601;48.718;8.992;2023-07-30T11:16:27;21.90;97.00
16970;DHT22;8601;48.718;8.992;2023-07-30T11:18:54;22.20;94.10
16970;DHT22;8601;48.718;8.992;2023-07-30T11:21:21;22.60;95.20
16970;DHT22;8601;48.718;8.992;2023-07-30T11:23:50;22.60;93.00
16970;DHT22;8601;48.718;8.992;2023-07-30T11:26:18;22.50;94.50
16970;DHT22;8601;48.718;8.992;2023-07-30T11:28:46;22.60;96.10
16970;DHT22;8601;48.718;8.992;2023-07-30T11:31:15;22.60;99.10
16970;DHT22;8601;48.718;8.992;2023-07-30T11:33:45;22.40;96.70
16970;DHT22;8601;48.718;8.992;2023-07-30T11:36:15;22.30;98.80
16970;DHT22;8601;48.718;8.992;2023-07-30T11:38:43;22.10;99.90
16970;DHT22;8601;48.718;8.992;2023-07-30T11:41:10;21.70;98.30
16970;DHT22;8601;48.718;8.992;2023-07-30T11:43:38;21.30;99.40
16970;DHT22;8601;48.718;8.992;2023-07-30T11:46:10;21.20;99.90
16970;DHT22;8601;48.718;8.992;2023-07-30T11:48:39;21.10;99.90
16970;DHT22;8601;48.718;8.992;2023-07-30T11:51:16;21.10;99.90
16970;DHT22;8601;48.718;8.992;2023-07-30T11:53:45;21.10;99.90
16970;DHT22;8601;48.718;8.992;2023-07-30T11:56:20;20.80;99.90
16970;DHT22;8601;48.718;8.992;2023-07-30T11:58:49;20.70;99.90
16970;DHT22;8601;48.718;8.992;2023-07-30T12:01:17;20.80;99.90
16970;DHT22;8601;48.718;8.992;2023-07-30T12:03:44;21.00;99.90
16970;DHT22;8601;48.718;8.992;2023-07-30T12:06:13;21.10;99.90
16970;DHT22;8601;48.718;8.992;2023-07-30T12:08:40;21.30;99.90
16970;DHT22;8601;48.718;8.992;2023-07-30T12:11:08;21.70;99.90
16970;DHT22;8601;48.718;8.992;2023-07-30T12:13:42;22.10;99.60
16970;DHT22;8601;48.718;8.992;2023-07-30T12:16:09;22.00;99.10
16970;DHT22;8601;48.718;8.992;2023-07-30T12:18:37;22.10;98.60
16970;DHT22;8601;48.718;8.992;2023-07-30T12:21:06;21.80;98.70
16970;DHT22;8601;48.718;8.992;2023-07-30T12:23:35;21.70;98.60
16970;DHT22;8601;48.718;8.992;2023-07-30T12:26:02;21.60;98.70
16970;DHT22;8601;48.718;8.992;2023-07-30T12:28:31;21.90;99.80
16970;DHT22;8601;48.718;8.992;2023-07-30T12:30:58;22.10;98.10
16970;DHT22;8601;48.718;8.992;2023-07-30T12:33:25;22.10;99.50
16970;DHT22;8601;48.718;8.992;2023-07-30T12:35:52;22.00;99.50
16970;DHT22;8601;48.718;8.992;2023-07-30T12:38:19;21.90;99.40
16970;DHT22;8601;48.718;8.992;2023-07-30T12:40:47;21.40;98.10
16970;DHT22;8601;48.718;8.992;2023-07-30T12:43:14;21.40;99.90
16970;DHT22;8601;48.718;8.992;2023-07-30T12:45:41;21.20;98.90
16970;DHT22;8601;48.718;8.992;2023-07-30T12:48:07;21.00;98.30
16970;DHT22;8601;48.718;8.992;2023-07-30T12:50:34;21.00;97.30
16970;DHT22;8601;48.718;8.992;2023-07-30T12:53:01;21.20;96.20
16970;DHT22;8601;48.718;8.992;2023-07-30T12:55:28;21.60;98.80
16970;DHT22;8601;48.718;8.992;2023-07-30T12:57:56;21.90;95.10
16970;DHT22;8601;48.718;8.992;2023-07-30T13:00:24;22.10;93.90
16970;DHT22;8601;48.718;8.992;2023-07-30T13:02:51;22.60;93.50
16970;DHT22;8601;48.718;8.992;2023-07-30T13:05:20;22.60;90.70
16970;DHT22;8601;48.718;8.992;2023-07-30T13:07:47;22.50;90.00
16970;DHT22;8601;48.718;8.992;2023-07-30T13:10:14;22.50;91.30
16970;DHT22;8601;48.718;8.992;2023-07-30T13:12:41;22.60;91.60
16970;DHT22;8601;48.718;8.992;2023-07-30T13:15:09;22.40;90.00
16970;DHT22;8601;48.718;8.992;2023-07-30T13:17:37;22.10;93.90
16970;DHT22;8601;48.718;8.992;2023-07-30T13:20:05;21.70;93.30
16970;DHT22;8601;48.718;8.992;2023-07-30T13:22:32;21.30;94.10
16970;DHT22;8601;48.718;8.992;2023-07-30T13:24:59;21.10;93.50
16970;DHT22;8601;48.718;8.992;2023-07-30T13:27:26;21.20;95.10
16970;DHT22;8601;48.718;8.992;2023-07-30T13:29:53;21.50;95.10
16970;DHT22;8601;48.718;8.992;2023-07-30T13:32:21;21.70;93.10
16970;DHT22;8601;48.718;8.992;2023-07-30T13:34:48;21.70;94.20
16970;DHT22;8601;48.718;8.992;2023-07-30T13:37:15;21.90;92.80
16970;DHT22;8601;48.718;8.992;2023-07-30T13:39:42;22.00;91.00
16970;DHT22;8601;48.718;8.992;2023-07-30T13:42:09;21.90;90.80
16970;DHT22;8601;48.718;8.992;2023-07-30T13:44:36;21.70;90.90
16970;DHT22;8601;48.718;8.992;2023-07-30T13:47:03;21.60;91.50
16970;DHT22;8601;48.718;8.992;2023-07-30T13:49:31;21.90;91.40
16970;DHT22;8601;48.718;8.992;2023-07-30T13:51:58;22.00;92.40
16970;DHT22;8601;48.718;8.992;2023-07-30T13:54:25;21.90;92.60
16970;DHT22;8601;48.718;8.992;2023-07-30T13:56:52;21.80;92.50
16970;DHT22;8601;48.718;8.992;2023-07-30T13:59:19;21.70;91.20
16970;DHT22;8601;48.718;8.992;2023-07-30T14:01:46;21.50;91.40
16970;DHT22;8601;48.718;8.992;2023-07-30T14:04:13;21.50;91.10
16970;DHT22;8601;48.718;8.992;2023-07-30T14:06:41;21.50;91.30
16970;DHT22;8601;48.718;8.992;2023-07-30T14:09:08;21.40;92.50
16970;DHT22;8601;48.718;8.992;2023-07-30T14:11:35;21.30;92.40
16970;DHT22;8601;48.718;8.992;2023-07-30T14:14:03;21.70;93.40
16970;DHT22;8601;48.718;8.992;2023-07-30T14:16:31;21.90;91.80
16970;DHT22;8601;48.718;8.992;2023-07-30T14:18:58;22.00;92.10
16970;DHT22;8601;48.718;8.992;2023-07-30T14:21:25;21.80;90.00
16970;DHT22;8601;48.718;8.992;2023-07-30T14:23:53;21.60;88.80
16970;DHT22;8601;48.718;8.992;2023-07-30T14:26:20;21.60;90.80
16970;DHT22;8601;48.718;8.992;2023-07-30T14:28:47;21.70;89.20
16970;DHT22;8601;48.718;8.992;2023-07-30T14:31:14;21.80;88.50
16970;DHT22;8601;48.718;8.992;2023-07-30T14:33:41;21.90;89.20
16970;DHT22;8601;48.718;8.992;2023-07-30T14:36:08;22.10;89.20
16970;DHT22;8601;48.718;8.992;2023-07-30T14:38:36;22.10;87.70
16970;DHT22;8601;48.718;8.992;2023-07-30T14:41:05;21.90;87.40
16970;DHT22;8601;48.718;8.992;2023-07-30T14:43:34;21.50;87.70
16970;DHT22;8601;48.718;8.992;2023-07-30T14:46:00;21.50;87.60
16970;DHT22;8601;48.718;8.992;2023-07-30T14:48:27;21.40;88.40
16970;DHT22;8601;48.718;8.992;2023-07-30T14:50:55;21.60;90.00
16970;DHT22;8601;48.718;8.992;2023-07-30T14:53:21;21.70;86.30
16970;DHT22;8601;48.718;8.992;2023-07-30T14:55:48;21.80;84.50
16970;DHT22;8601;48.718;8.992;2023-07-30T14:58:16;21.60;84.20
16970;DHT22;8601;48.718;8.992;2023-07-30T15:00:43;21.30;84.30
16970;DHT22;8601;48.718;8.992;2023-07-30T15:03:10;21.30;85.00
16970;DHT22;8601;48.718;8.992;2023-07-30T15:05:37;21.50;86.30
16970;DHT22;8601;48.718;8.992;2023-07-30T15:08:04;21.60;86.60
16970;DHT22;8601;48.718;8.992;2023-07-30T15:10:31;21.70;82.30
16970;DHT22;8601;48.718;8.992;2023-07-30T15:12:58;21.70;82.70
16970;DHT22;8601;48.718;8.992;2023-07-30T15:15:26;21.60;79.80
16970;DHT22;8601;48.718;8.992;2023-07-30T15:17:53;21.40;81.70
16970;DHT22;8601;48.718;8.992;2023-07-30T15:20:20;21.40;80.30
16970;DHT22;8601;48.718;8.992;2023-07-30T15:22:46;21.30;80.90
16970;DHT22;8601;48.718;8.992;2023-07-30T15:25:13;21.30;79.60
16970;DHT22;8601;48.718;8.992;2023-07-30T15:27:40;21.30;79.40
16970;DHT22;8601;48.718;8.992;2023-07-30T15:30:08;21.30;79.60
16970;DHT22;8601;48.718;8.992;2023-07-30T15:32:41;21.30;79.90
16970;DHT22;8601;48.718;8.992;2023-07-30T15:35:08;21.40;81.40
16970;DHT22;8601;48.718;8.992;2023-07-30T15:37:36;21.50;78.50
16970;DHT22;8601;48.718;8.992;2023-07-30T15:40:03;21.50;77.40
16970;DHT22;8601;48.718;8.992;2023-07-30T15:42:31;21.60;80.80
16970;DHT22;8601;48.718;8.992;2023-07-30T15:44:58;21.70;77.30
16970;DHT22;8601;48.718;8.992;2023-07-30T15:47:25;21.80;77.10